メインページ
METAR-TAF:

METAR-TAF

空港 :

ウォータールー, オンタリオ州, カナダ

緯度: 43-28N, 経度: 080-23W, 海抜: 317m

現時点の気象観測

当レポートは39分前の02:10(UTC)に作成
西/北西の風 10kt
気温 -3°C
湿度 80%
気圧 1022 hPa
視程: 14.5km
高度2600ftの雲は散在している
高度3100ftの千切れ雲あり
高度5500ftの千切れ雲あり
小雪

METAR: CYKF 070210Z AUTO 29010KT 9SM -SN SCT026 BKN031 BKN055 M03/M06 A3019 RMK SLP241

時間: 21:49 (02:49 UTC)

予報

当レポートは1時間10分前の01:39(UTC)に作成
予報は07日の 02時(UTC)から 07日の 14時(UTC)まで有効
西/北西の風 12kt
視程: 10km
高度5000ftの千切れ雲あり
07日の 02時(UTC)から 07日の 08時(UTC)まで一時的に
視程: 10km
高度2000ftの千切れ雲あり
弱いにわか雪
07日の 02時(UTC)から 07日の 04時(UTC)まで徐々に
西/北西の風 6kt
07日の 0800時(UTC)から
西/北西の風 6kt
視程: 10km
高度3000ftの千切れ雲あり
07日の 08時(UTC)から 07日の 14時(UTC)まで一時的に
高度2000ftの千切れ雲あり
07日の 08時(UTC)から 07日の 10時(UTC)まで徐々に
変向風 3kt

TAF: CYKF 070139Z 0702/0714 30012KT P6SM BKN050 TEMPO 0702/0708 P6SM -SHSN BKN020 BECMG 0702/0704 30006KT FM070800 30006KT P6SM BKN030 TEMPO 0708/0714 BKN020 BECMG 0708/0710 VRB03KT RMK FCST BASED ON AUTO OBS. NXT FCST BY 070800Z

4,000以上の空港の気象観測と天気予報(METAR報とTAF報)

利用可能な観測所は地図上に黄色い丸と赤い丸で示す。

丸の上にカーソルを重ねると観測所名を参照できる。

次にクリックすると気象観測と天気予報を参照できる。

マップの切り替え:黒色「×」印の緑ボタンをクリックして拡大、「-」印の緑ボタンをクリックして縮小、緑色の三角印をクリックして隣りの地図に切り替え


METAR-TAF: